Time;durP1;ratioP1;P1;durP2;ratioP2;P2;SDS_P1;SDS_P2;PMS_P1;PMS_P2;Temp;Humidity;BMP_temperature;BMP_pressure;BME280_temperature;BME280_humidity;BME280_pressure;Samples;Min_cycle;Max_cycle;Signal;HPM_P1;HPM_P2
2021/11/04 00:02:01;;;;;;;11.83;10.60;;;;;;;7.02;100.00;99362.72;5072036;28;20544;-74
2021/11/04 00:04:26;;;;;;;10.43;9.27;;;;;;;7.02;100.00;99370.88;5071697;28;20177;-73
2021/11/04 00:06:54;;;;;;;15.37;9.73;;;;;;;7.01;100.00;99361.13;5071779;28;20182;-73
2021/11/04 00:09:19;;;;;;;9.93;8.73;;;;;;;7.01;100.00;99374.69;5071839;28;20167;-73
2021/11/04 00:11:45;;;;;;;11.63;10.43;;;;;;;6.96;100.00;99352.31;5071533;28;20236;-74
2021/11/04 00:14:10;;;;;;;12.33;10.13;;;;;;;6.94;100.00;99346.38;5071287;28;20298;-74
2021/11/04 00:16:36;;;;;;;11.30;10.10;;;;;;;6.91;100.00;99355.97;5071659;28;20186;-74
2021/11/04 00:19:01;;;;;;;13.23;10.77;;;;;;;6.99;100.00;99359.84;5071771;28;20173;-74
2021/11/04 00:21:27;;;;;;;14.27;10.83;;;;;;;6.86;100.00;99361.53;5071899;28;20668;-73
2021/11/04 00:23:52;;;;;;;10.60;9.60;;;;;;;6.92;100.00;99363.00;5071476;28;20171;-73
2021/11/04 00:26:17;;;;;;;10.60;9.60;;;;;;;6.93;100.00;99374.66;5071489;28;20210;-74
2021/11/04 00:28:43;;;;;;;11.80;9.60;;;;;;;6.97;100.00;99360.16;5071519;28;20167;-74
2021/11/04 00:31:09;;;;;;;12.33;11.13;;;;;;;6.92;100.00;99371.13;5071313;28;20167;-74
2021/11/04 00:33:36;;;;;;;16.97;11.27;;;;;;;6.82;100.00;99347.00;5071335;28;20194;-73
2021/11/04 00:36:02;;;;;;;12.57;10.60;;;;;;;6.86;100.00;99369.69;5071234;28;20277;-74
2021/11/04 00:38:28;;;;;;;10.93;9.67;;;;;;;6.89;100.00;99358.19;5070956;28;20690;-74
2021/11/04 00:40:55;;;;;;;11.93;10.73;;;;;;;6.85;100.00;99368.09;5071252;28;20175;-74
2021/11/04 00:43:20;;;;;;;12.57;10.93;;;;;;;6.90;100.00;99357.06;5071244;28;20258;-74
2021/11/04 00:45:46;;;;;;;13.13;10.90;;;;;;;6.88;100.00;99375.59;5071106;28;20619;-74
2021/11/04 00:48:11;;;;;;;12.83;10.83;;;;;;;6.86;100.00;99369.69;5071072;28;20713;-74
2021/11/04 00:50:37;;;;;;;11.27;10.07;;;;;;;6.80;100.00;99360.09;5071030;28;20253;-74
2021/11/04 00:53:02;;;;;;;10.70;9.60;;;;;;;6.82;100.00;99347.00;5065563;28;20204;-73
2021/11/04 00:55:28;;;;;;;12.17;10.87;;;;;;;6.77;100.00;99349.84;5058266;28;20234;-73
2021/11/04 00:57:53;;;;;;;12.30;10.60;;;;;;;6.75;100.00;99352.88;5071386;28;20171;-73
2021/11/04 01:00:19;;;;;;;11.30;9.13;;;;;;;6.75;100.00;99341.22;5071694;28;20175;-73
2021/11/04 01:02:45;;;;;;;15.43;11.40;;;;;;;6.72;100.00;99364.34;5070497;28;20252;-73
2021/11/04 01:05:11;;;;;;;12.03;10.73;;;;;;;6.74;100.00;99353.19;5071113;28;20170;-73
2021/11/04 01:07:36;;;;;;;12.33;11.07;;;;;;;6.69;100.00;99351.41;5071201;28;20179;-73
2021/11/04 01:10:04;;;;;;;12.33;10.90;;;;;;;6.68;100.00;99349.81;5071233;28;20178;-73
2021/11/04 01:12:29;;;;;;;11.60;10.47;;;;;;;6.74;100.00;99358.59;5069893;28;20243;-73
2021/11/04 01:14:55;;;;;;;15.13;10.80;;;;;;;6.73;100.00;99354.28;5071216;28;20656;-73
2021/11/04 01:17:20;;;;;;;11.30;10.10;;;;;;;6.69;100.00;99356.03;5071457;28;20221;-73
2021/11/04 01:19:45;;;;;;;15.70;10.27;;;;;;;6.70;100.00;99346.78;5071123;28;20249;-73
2021/11/04 01:22:11;;;;;;;15.03;11.13;;;;;;;6.64;100.00;99359.66;5071083;28;20177;-73
2021/11/04 01:24:36;;;;;;;14.57;10.97;;;;;;;6.64;100.00;99383.28;5070933;28;20197;-73
2021/11/04 01:27:02;;;;;;;11.80;10.13;;;;;;;6.68;100.00;99363.38;5070825;28;20181;-73
2021/11/04 01:29:27;;;;;;;14.93;11.20;;;;;;;6.65;100.00;99350.41;5070921;28;20175;-74
2021/11/04 01:31:52;;;;;;;12.70;10.40;;;;;;;6.67;100.00;99372.63;5070919;28;20589;-74
2021/11/04 01:34:18;;;;;;;15.67;11.60;;;;;;;6.67;100.00;99388.91;5070783;28;20565;-73
2021/11/04 01:36:43;;;;;;;12.03;10.17;;;;;;;6.66;100.00;99364.81;5070757;28;20180;-73
2021/11/04 01:39:08;;;;;;;16.67;11.00;;;;;;;6.64;100.00;99365.09;5071160;28;20174;-73
2021/11/04 01:41:34;;;;;;;12.33;11.03;;;;;;;6.60;100.00;99361.41;5070953;28;20171;-73
2021/11/04 01:43:59;;;;;;;12.43;11.13;;;;;;;6.59;100.00;99375.28;5070812;28;20257;-74
2021/11/04 01:46:26;;;;;;;14.97;11.70;;;;;;;6.54;100.00;99378.94;5071237;28;20633;-73
2021/11/04 01:48:51;;;;;;;18.13;11.77;;;;;;;6.52;100.00;99381.19;5071053;28;20456;-73
2021/11/04 01:51:18;;;;;;;15.70;11.07;;;;;;;6.54;100.00;99358.03;5070724;28;20170;-73
2021/11/04 01:53:44;;;;;;;14.73;11.77;;;;;;;6.57;100.00;99351.97;5070922;28;20245;-74
2021/11/04 01:56:10;;;;;;;15.87;12.03;;;;;;;6.52;100.00;99351.34;5070832;28;20171;-74
2021/11/04 01:58:35;;;;;;;13.00;11.73;;;;;;;6.50;100.00;99340.75;5070704;28;20159;-73
2021/11/04 02:01:01;;;;;;;16.90;11.13;;;;;;;6.50;100.00;99338.06;5070784;28;20254;-73
2021/11/04 02:03:42;;;;;;;17.07;12.00;;;;;;;6.50;100.00;99334.53;5070960;28;20174;-73
2021/11/04 02:06:26;;;;;;;15.67;11.67;;;;;;;6.48;100.00;99325.91;5070624;28;20254;-73
2021/11/04 02:09:02;;;;;;;15.20;12.60;;;;;;;6.50;100.00;99367.91;5070747;28;20221;-73
2021/11/04 02:11:34;;;;;;;18.87;12.63;;;;;;;6.49;100.00;99336.44;5070625;28;20514;-73
2021/11/04 02:14:13;;;;;;;15.00;11.23;;;;;;;6.50;100.00;99334.53;5072649;28;20277;-74
2021/11/04 02:16:40;;;;;;;14.83;11.93;;;;;;;6.49;100.00;99360.06;5074361;28;20573;-73
2021/11/04 02:19:44;;;;;;;21.27;12.90;;;;;;;6.48;100.00;99345.69;5072950;28;20167;-73
2021/11/04 02:22:21;;;;;;;15.57;10.87;;;;;;;6.52;100.00;99326.91;5072494;28;20178;-73
2021/11/04 02:25:06;;;;;;;13.47;11.83;;;;;;;6.45;100.00;99316.50;5074032;28;20174;-73
2021/11/04 02:27:31;;;;;;;17.67;12.53;;;;;;;6.44;100.00;99328.44;5074186;28;20221;-72
2021/11/04 02:29:57;;;;;;;13.97;12.37;;;;;;;6.47;100.00;99335.16;5073998;28;20646;-73
2021/11/04 02:32:23;;;;;;;17.83;11.70;;;;;;;6.48;100.00;99323.19;5074036;28;20202;-73
2021/11/04 02:34:49;;;;;;;17.53;12.13;;;;;;;6.45;100.00;99327.34;5073886;28;20195;-73
2021/11/04 02:37:15;;;;;;;14.97;12.50;;;;;;;6.47;100.00;99341.38;5073903;28;20624;-73
2021/11/04 02:39:41;;;;;;;14.37;12.07;;;;;;;6.49;100.00;99360.88;5074304;28;20588;-73
2021/11/04 02:42:07;;;;;;;16.83;12.87;;;;;;;6.46;100.00;99356.06;5073694;28;20198;-73
2021/11/04 02:44:35;;;;;;;14.60;11.97;;;;;;;6.49;100.00;99358.16;5073705;28;20177;-73
2021/11/04 02:47:01;;;;;;;19.40;13.47;;;;;;;6.49;100.00;99341.06;5074013;28;20541;-74
2021/11/04 02:49:27;;;;;;;18.70;12.77;;;;;;;6.48;100.00;99334.84;5073622;28;20178;-73
2021/11/04 02:51:54;;;;;;;16.87;11.47;;;;;;;6.47;100.00;99327.03;5073615;28;20250;-73
2021/11/04 02:54:19;;;;;;;15.40;12.87;;;;;;;6.48;100.00;99324.00;5071757;28;20209;-73
2021/11/04 02:56:47;;;;;;;18.37;13.93;;;;;;;6.47;100.00;99330.53;5073327;28;20170;-74
2021/11/04 02:59:14;;;;;;;15.10;13.03;;;;;;;6.47;100.00;99329.75;5073244;28;20542;-74
2021/11/04 03:01:44;;;;;;;15.93;14.23;;;;;;;6.45;100.00;99330.06;5071830;28;20255;-74
2021/11/04 03:04:10;;;;;;;15.10;11.77;;;;;;;6.45;100.00;99329.25;5072927;28;20549;-73
2021/11/04 03:06:36;;;;;;;18.17;13.80;;;;;;;6.44;100.00;99342.03;5072846;28;20405;-74
2021/11/04 03:09:02;;;;;;;17.43;13.47;;;;;;;6.46;100.00;99331.66;5071800;28;20661;-73
2021/11/04 03:11:28;;;;;;;20.97;13.43;;;;;;;6.45;100.00;99321.91;5073023;28;20166;-74
2021/11/04 03:13:53;;;;;;;16.43;12.60;;;;;;;6.46;100.00;99333.56;5072689;28;20530;-73
2021/11/04 03:16:20;;;;;;;17.70;13.70;;;;;;;6.44;100.00;99327.66;5072987;28;20566;-73
2021/11/04 03:18:46;;;;;;;17.73;13.73;;;;;;;6.45;100.00;99331.97;5073137;28;20224;-73
2021/11/04 03:21:12;;;;;;;17.43;12.23;;;;;;;6.44;100.00;99362.91;5072732;28;20179;-74
2021/11/04 03:23:38;;;;;;;20.20;12.97;;;;;;;6.43;100.00;99351.28;5072630;28;20171;-73
2021/11/04 03:26:04;;;;;;;19.70;12.87;;;;;;;6.46;100.00;99339.78;5072084;28;20178;-73
2021/11/04 03:28:31;;;;;;;18.33;12.83;;;;;;;6.42;100.00;99359.72;5072683;28;20181;-73
2021/11/04 03:30:57;;;;;;;18.70;12.40;;;;;;;6.46;100.00;99380.50;5072452;28;20175;-73
2021/11/04 03:33:23;;;;;;;15.10;13.40;;;;;;;6.40;100.00;99364.66;5072776;28;20188;-73
2021/11/04 03:35:50;;;;;;;16.13;12.97;;;;;;;6.42;100.00;99382.22;5074540;28;20179;-74
2021/11/04 03:38:16;;;;;;;19.87;12.93;;;;;;;6.45;100.00;99391.66;5072431;28;20166;-73
2021/11/04 03:40:42;;;;;;;18.37;13.57;;;;;;;6.43;100.00;99367.53;5072652;28;20175;-73
2021/11/04 03:43:09;;;;;;;18.10;12.80;;;;;;;6.44;100.00;99371.88;5072573;28;20183;-73
2021/11/04 03:45:37;;;;;;;20.97;11.07;;;;;;;6.52;100.00;99379.25;5072853;28;20681;-73
2021/11/04 03:48:04;;;;;;;16.43;11.77;;;;;;;6.52;100.00;99365.69;5071089;28;20645;-74
2021/11/04 03:50:30;;;;;;;13.83;11.10;;;;;;;6.53;100.00;99377.34;5071043;28;20590;-73
2021/11/04 03:52:56;;;;;;;16.10;12.03;;;;;;;6.67;100.00;99382.69;5072214;28;20236;-74
2021/11/04 03:55:25;;;;;;;15.53;12.90;;;;;;;6.59;100.00;99380.72;5071941;28;20673;-74
2021/11/04 03:57:52;;;;;;;13.60;10.87;;;;;;;6.53;100.00;99380.88;5070791;28;20219;-74
2021/11/04 04:00:18;;;;;;;13.13;10.97;;;;;;;6.50;100.00;99384.19;5072110;28;20634;-74
2021/11/04 04:02:46;;;;;;;15.77;10.63;;;;;;;6.48;100.00;99380.19;5072057;28;20174;-74
2021/11/04 04:05:12;;;;;;;17.73;12.00;;;;;;;6.49;100.00;99370.91;5071760;28;20178;-74
2021/11/04 04:07:38;;;;;;;12.13;10.53;;;;;;;6.57;100.00;99392.69;5071843;28;20178;-75
2021/11/04 04:10:04;;;;;;;14.93;10.03;;;;;;;6.61;100.00;99379.28;5071833;28;20174;-75
2021/11/04 04:12:29;;;;;;;13.53;10.83;;;;;;;6.71;100.00;99406.19;5071826;28;20178;-74
2021/11/04 04:14:55;;;;;;;11.73;10.50;;;;;;;6.77;100.00;99379.69;5071771;28;20554;-75
2021/11/04 04:17:21;;;;;;;14.67;11.43;;;;;;;6.80;100.00;99365.53;5071972;28;20178;-75
2021/11/04 04:19:51;;;;;;;14.10;10.60;;;;;;;6.83;100.00;99362.19;5071569;28;20530;-74
2021/11/04 04:22:18;;;;;;;10.43;9.40;;;;;;;6.88;100.00;99380.22;5071806;28;20519;-74
2021/11/04 04:24:43;;;;;;;15.00;11.53;;;;;;;6.74;100.00;99383.03;5071363;28;20197;-74
2021/11/04 04:27:11;;;;;;;11.13;9.17;;;;;;;6.91;100.00;99371.44;5071531;28;20261;-74
2021/11/04 04:29:36;;;;;;;12.77;10.77;;;;;;;6.77;100.00;99369.63;5071526;28;20174;-74
2021/11/04 04:32:02;;;;;;;18.50;10.93;;;;;;;6.76;100.00;99397.09;5071322;28;20244;-74
2021/11/04 04:34:28;;;;;;;12.33;10.47;;;;;;;6.78;100.00;99373.16;5071209;28;20619;-73
2021/11/04 04:36:53;;;;;;;13.23;11.43;;;;;;;6.81;100.00;99389.63;5070229;28;20253;-74
2021/11/04 04:39:19;;;;;;;11.87;10.67;;;;;;;6.72;100.00;99405.06;5070271;28;20193;-74
2021/11/04 04:41:44;;;;;;;13.37;11.07;;;;;;;6.63;100.00;99387.91;5069847;28;20174;-74
2021/11/04 04:44:10;;;;;;;14.50;9.83;;;;;;;6.70;100.00;99423.56;5071104;28;20385;-74
2021/11/04 04:46:35;;;;;;;13.97;11.00;;;;;;;6.66;100.00;99395.47;5068544;28;20223;-74
2021/11/04 04:49:01;;;;;;;11.97;10.63;;;;;;;6.62;100.00;99409.94;5062004;28;20183;-74
2021/11/04 04:51:26;;;;;;;14.97;11.30;;;;;;;6.56;100.00;99420.94;5070003;28;20170;-74
2021/11/04 04:53:52;;;;;;;12.17;10.80;;;;;;;6.64;100.00;99413.94;5071246;28;20206;-74
2021/11/04 04:56:17;;;;;;;18.37;10.63;;;;;;;6.54;100.00;99417.75;5071900;28;20167;-73
2021/11/04 04:58:43;;;;;;;13.37;11.03;;;;;;;6.52;100.00;99425.41;5071531;28;20178;-74
2021/11/04 05:01:08;;;;;;;18.93;10.97;;;;;;;6.57;100.00;99421.75;5071471;28;20229;-74
2021/11/04 05:03:34;;;;;;;14.47;10.97;;;;;;;6.68;100.00;99439.38;5071484;28;20182;-75
2021/11/04 05:05:59;;;;;;;14.33;10.50;;;;;;;6.74;100.00;99437.31;5071190;28;20174;-74
2021/11/04 05:08:25;;;;;;;13.53;10.73;;;;;;;6.65;100.00;99420.19;5071282;28;20173;-74
2021/11/04 05:10:50;;;;;;;14.07;10.57;;;;;;;6.77;100.00;99426.63;5071028;28;20171;-74
2021/11/04 05:13:15;;;;;;;13.15;11.55;;;;;;;6.71;100.00;99427.91;5071229;28;20183;-74
2021/11/04 05:15:41;;;;;;;15.83;11.63;;;;;;;6.71;100.00;99432.53;5071081;28;20183;-75
2021/11/04 05:18:07;;;;;;;11.03;9.53;;;;;;;6.75;100.00;99431.59;5071433;28;20170;-74
2021/11/04 05:20:34;;;;;;;15.03;10.97;;;;;;;6.92;100.00;99459.94;5071137;28;20218;-75
2021/11/04 05:22:59;;;;;;;11.13;9.47;;;;;;;6.99;100.00;99450.25;5071424;28;20597;-75
2021/11/04 05:25:25;;;;;;;11.53;9.27;;;;;;;7.15;100.00;99443.28;5071038;28;20265;-75
2021/11/04 05:27:50;;;;;;;14.77;11.07;;;;;;;6.82;100.00;99434.66;5071102;28;20291;-74
2021/11/04 05:30:17;;;;;;;12.97;10.97;;;;;;;6.86;100.00;99440.28;5071194;28;20170;-74
2021/11/04 05:32:43;;;;;;;11.10;9.53;;;;;;;6.88;100.00;99457.03;5071079;28;20585;-74
2021/11/04 05:35:09;;;;;;;14.90;9.00;;;;;;;6.93;100.00;99450.69;5070521;28;20190;-75
2021/11/04 05:37:34;;;;;;;12.80;10.47;;;;;;;6.76;100.00;99456.81;5070931;28;20228;-74
2021/11/04 05:40:00;;;;;;;11.20;9.97;;;;;;;6.71;100.00;99475.94;5071073;28;20202;-75
2021/11/04 05:42:25;;;;;;;11.30;10.13;;;;;;;6.72;100.00;99477.56;5070796;28;20194;-74
2021/11/04 05:44:50;;;;;;;12.47;11.00;;;;;;;6.60;100.00;99458.31;5070730;28;20202;-74
2021/11/04 05:47:17;;;;;;;12.17;10.70;;;;;;;6.64;100.00;99449.22;5070898;28;20182;-74
2021/11/04 05:49:42;;;;;;;11.83;10.53;;;;;;;6.62;100.00;99451.44;5074580;28;20182;-74
2021/11/04 05:52:08;;;;;;;12.07;10.83;;;;;;;6.77;100.00;99455.69;5075023;28;20178;-75
2021/11/04 05:54:34;;;;;;;11.63;10.23;;;;;;;6.69;100.00;99448.31;5074831;28;20642;-74
2021/11/04 05:57:00;;;;;;;14.47;10.00;;;;;;;6.69;100.00;99443.69;5075118;28;20228;-74
2021/11/04 05:59:26;;;;;;;14.53;9.93;;;;;;;6.82;100.00;99458.31;5073173;28;20202;-74
2021/11/04 06:01:53;;;;;;;11.40;10.20;;;;;;;6.67;100.00;99426.13;5074771;28;20202;-74
2021/11/04 06:04:18;;;;;;;12.60;10.17;;;;;;;6.56;100.00;99437.22;5074564;28;20223;-74
2021/11/04 06:06:44;;;;;;;15.60;11.17;;;;;;;6.53;100.00;99437.84;5074548;28;20186;-74
2021/11/04 06:09:09;;;;;;;15.20;11.23;;;;;;;6.52;100.00;99435.44;5074510;28;20198;-74
2021/11/04 06:11:36;;;;;;;15.00;11.70;;;;;;;6.57;100.00;99438.03;5074474;28;20198;-74
2021/11/04 06:14:01;;;;;;;13.00;10.37;;;;;;;6.52;100.00;99430.00;5074031;28;20268;-74
2021/11/04 06:16:27;;;;;;;12.93;9.50;;;;;;;6.53;100.00;99432.41;5074665;28;20618;-74
2021/11/04 06:18:52;;;;;;;13.50;10.77;;;;;;;6.48;100.00;99429.81;5074422;28;20573;-74
2021/11/04 06:21:18;;;;;;;13.90;10.87;;;;;;;6.49;100.00;99441.47;5074335;28;20181;-74
2021/11/04 06:23:44;;;;;;;15.70;11.07;;;;;;;6.46;100.00;99453.75;5074207;28;20540;-74
2021/11/04 06:26:10;;;;;;;15.70;10.30;;;;;;;6.45;100.00;99435.88;5073889;28;20257;-74
2021/11/04 06:28:35;;;;;;;11.33;9.50;;;;;;;6.50;100.00;99440.34;5074151;28;20183;-74
2021/11/04 06:31:01;;;;;;;16.67;11.60;;;;;;;6.49;100.00;99441.47;5074028;28;20664;-74
2021/11/04 06:33:26;;;;;;;17.93;12.43;;;;;;;6.50;100.00;99434.94;5074317;28;20690;-74
2021/11/04 06:35:54;;;;;;;16.17;10.47;;;;;;;6.55;100.00;99438.34;5074216;28;20175;-73
2021/11/04 06:38:21;;;;;;;15.80;10.50;;;;;;;6.54;100.00;99458.44;5073950;28;20171;-73
2021/11/04 06:40:46;;;;;;;13.20;10.77;;;;;;;6.55;100.00;99457.34;5074087;28;20202;-74
2021/11/04 06:43:12;;;;;;;17.53;10.17;;;;;;;6.68;100.00;99446.72;5072388;28;20202;-74
2021/11/04 06:45:46;;;;;;;15.13;11.43;;;;;;;6.57;100.00;99441.53;5073321;28;20181;-74
2021/11/04 06:48:16;;;;;;;14.77;10.57;;;;;;;6.48;100.00;99432.53;5073522;28;20163;-74
2021/11/04 06:50:46;;;;;;;21.20;11.87;;;;;;;6.51;100.00;99459.06;5073178;28;20534;-73
2021/11/04 06:53:11;;;;;;;17.03;9.47;;;;;;;6.55;100.00;99424.78;5073426;28;20194;-74
2021/11/04 06:55:43;;;;;;;10.53;9.07;;;;;;;6.53;100.00;99448.69;5073596;28;20202;-74
2021/11/04 06:58:15;;;;;;;17.93;10.90;;;;;;;6.59;100.00;99430.38;5073378;28;20181;-74
2021/11/04 07:00:45;;;;;;;15.87;10.87;;;;;;;6.51;100.00;99442.78;5072216;28;20461;-74
2021/11/04 07:03:28;;;;;;;16.07;11.17;;;;;;;6.64;100.00;99430.22;5073374;28;20174;-74
2021/11/04 07:08:24;;;;;;;11.93;10.23;;;;;;;6.79;100.00;99464.31;5073352;28;20209;-77
2021/11/04 07:10:59;;;;;;;13.40;10.47;;;;;;;6.79;100.00;99458.91;5072773;28;20231;-77
2021/11/04 07:13:27;;;;;;;12.30;9.53;;;;;;;6.72;100.00;99467.50;5072905;28;20185;-76
2021/11/04 07:15:55;;;;;;;12.40;10.40;;;;;;;6.71;100.00;99455.03;5072677;28;20185;-75
2021/11/04 07:18:21;;;;;;;14.37;9.23;;;;;;;6.77;100.00;99463.84;5072824;28;20213;-76
2021/11/04 07:20:55;;;;;;;12.43;9.90;;;;;;;6.79;100.00;99461.63;5071873;28;20626;-75
2021/11/04 07:23:46;;;;;;;14.00;9.23;;;;;;;6.88;100.00;99456.25;5068902;28;20190;-76
2021/11/04 07:26:11;;;;;;;14.00;9.37;;;;;;;6.84;100.00;99464.22;5071156;28;20194;-74
2021/11/04 07:28:40;;;;;;;10.30;9.07;;;;;;;6.87;100.00;99463.59;5073090;28;20186;-76
2021/11/04 07:31:09;;;;;;;12.27;8.70;;;;;;;6.78;100.00;99471.66;5072854;28;20174;-77
2021/11/04 07:33:35;;;;;;;10.73;8.43;;;;;;;6.80;100.00;99484.97;5072985;28;20269;-75
2021/11/04 07:36:02;;;;;;;10.93;8.07;;;;;;;6.82;100.00;99463.72;5071850;28;20170;-76
2021/11/04 07:38:32;;;;;;;11.50;8.77;;;;;;;6.79;100.00;99467.03;5073145;28;20249;-76
2021/11/04 07:40:57;;;;;;;8.17;6.97;;;;;;;6.76;100.00;99473.91;5072590;28;20630;-75
2021/11/04 07:43:25;;;;;;;13.00;8.30;;;;;;;6.74;100.00;99491.63;5072711;28;20186;-76
2021/11/04 07:45:50;;;;;;;10.23;8.13;;;;;;;6.95;100.00;99491.91;5072766;28;20181;-76
2021/11/04 07:48:15;;;;;;;8.77;7.87;;;;;;;7.08;100.00;99480.16;5072654;28;20170;-74
2021/11/04 07:50:41;;;;;;;9.50;6.97;;;;;;;6.84;100.00;99510.38;5072772;28;20622;-73
2021/11/04 07:53:06;;;;;;;8.47;7.53;;;;;;;6.92;100.00;99484.38;5072676;28;20175;-73
2021/11/04 07:55:31;;;;;;;9.53;7.70;;;;;;;6.82;100.00;99480.03;5071220;28;20210;-73
2021/11/04 07:57:57;;;;;;;9.70;7.47;;;;;;;6.89;100.00;99485.00;5072678;28;20210;-73
2021/11/04 08:00:28;;;;;;;9.80;8.73;;;;;;;6.98;100.00;99492.09;5072590;28;20186;-73
2021/11/04 08:02:53;;;;;;;9.27;7.60;;;;;;;6.91;100.00;99497.16;5072476;28;20221;-73
2021/11/04 08:05:19;;;;;;;9.43;8.43;;;;;;;6.99;100.00;99473.88;5072622;28;20179;-74
2021/11/04 08:07:44;;;;;;;10.23;8.30;;;;;;;6.93;100.00;99480.53;5070406;28;20255;-73
2021/11/04 08:10:15;;;;;;;9.33;7.90;;;;;;;6.96;100.00;99474.50;5072065;28;20217;-74
2021/11/04 08:12:40;;;;;;;9.17;8.07;;;;;;;7.10;100.00;99473.31;5072032;28;20183;-74
2021/11/04 08:15:10;;;;;;;9.90;8.80;;;;;;;7.05;100.00;99468.00;5071929;28;20244;-74
2021/11/04 08:17:35;;;;;;;9.53;7.17;;;;;;;7.21;100.00;99468.38;5072504;28;20182;-74
2021/11/04 08:20:07;;;;;;;9.47;8.53;;;;;;;7.27;100.00;99477.22;5071994;28;20696;-74
2021/11/04 08:22:33;;;;;;;9.50;8.50;;;;;;;7.29;100.00;99483.13;5071957;28;20178;-74
2021/11/04 08:24:59;;;;;;;9.23;7.67;;;;;;;7.37;100.00;99471.47;5071320;28;20175;-74
2021/11/04 08:27:25;;;;;;;10.60;8.73;;;;;;;7.39;100.00;99480.16;5071816;28;20177;-73
2021/11/04 08:29:50;;;;;;;12.87;8.70;;;;;;;7.41;100.00;99478.72;5071591;28;20601;-73
2021/11/04 08:32:16;;;;;;;14.97;10.43;;;;;;;7.40;100.00;99468.16;5071370;28;20178;-73
2021/11/04 08:34:42;;;;;;;15.40;9.70;;;;;;;7.40;100.00;99471.69;5071270;28;20205;-74
2021/11/04 08:37:09;;;;;;;13.77;7.60;;;;;;;7.37;100.00;99455.97;5071434;28;20174;-74
2021/11/04 08:39:35;;;;;;;13.47;9.13;;;;;;;7.33;100.00;99462.38;5071747;28;20175;-73
2021/11/04 08:42:01;;;;;;;12.77;9.33;;;;;;;7.33;100.00;99460.44;5071671;28;20175;-74
2021/11/04 08:44:26;;;;;;;8.73;5.83;;;;;;;7.24;100.00;99459.63;5071898;28;20175;-75
2021/11/04 08:46:52;;;;;;;9.50;6.97;;;;;;;7.24;100.00;99448.78;5071974;28;20197;-75
2021/11/04 08:49:17;;;;;;;6.80;5.80;;;;;;;7.20;100.00;99463.28;5072064;28;20620;-75
2021/11/04 08:51:43;;;;;;;11.63;7.90;;;;;;;7.17;100.00;99459.28;5071429;28;20395;-74
2021/11/04 08:54:10;;;;;;;6.97;6.27;;;;;;;7.17;100.00;99467.41;5071313;28;20202;-74
2021/11/04 08:56:36;;;;;;;8.87;7.93;;;;;;;7.17;100.00;99456.56;5071627;28;20491;-80
2021/11/04 08:59:03;;;;;;;7.63;6.90;;;;;;;7.20;100.00;99477.66;5071530;28;20515;-76
2021/11/04 09:01:28;;;;;;;7.20;6.50;;;;;;;7.12;100.00;99470.28;5071215;28;20221;-76
2021/11/04 09:03:54;;;;;;;7.67;6.87;;;;;;;7.11;100.00;99480.34;5071539;28;20206;-74
2021/11/04 09:06:19;;;;;;;6.20;5.60;;;;;;;7.08;100.00;99478.22;5071216;28;20186;-75
2021/11/04 09:08:44;;;;;;;7.13;6.43;;;;;;;7.08;100.00;99480.94;5071208;28;20201;-75
2021/11/04 09:11:10;;;;;;;9.13;7.13;;;;;;;7.12;100.00;99465.66;5068390;28;20186;-75
2021/11/04 09:13:35;;;;;;;7.53;6.60;;;;;;;7.09;100.00;99466.28;5070602;28;20175;-74
2021/11/04 09:16:00;;;;;;;8.43;7.00;;;;;;;7.15;100.00;99464.22;5070578;28;20676;-75
2021/11/04 09:18:26;;;;;;;7.23;6.57;;;;;;;7.19;100.00;99472.53;5070836;28;20175;-75
2021/11/04 09:20:51;;;;;;;6.80;6.03;;;;;;;7.14;100.00;99468.84;5070894;28;20174;-75
2021/11/04 09:23:16;;;;;;;7.30;6.60;;;;;;;7.15;100.00;99470.44;5070440;28;20615;-75
2021/11/04 09:25:42;;;;;;;3.50;3.20;;;;;;;7.14;100.00;99471.56;5063595;28;20187;-73
2021/11/04 09:28:07;;;;;;;5.93;5.33;;;;;;;7.10;100.00;99462.44;5070812;28;20179;-74
2021/11/04 09:30:33;;;;;;;7.33;6.63;;;;;;;7.11;100.00;99466.75;5070957;28;20182;-74
2021/11/04 09:32:58;;;;;;;9.20;4.80;;;;;;;7.11;100.00;99458.63;5070966;28;20262;-74
2021/11/04 09:35:24;;;;;;;8.30;7.50;;;;;;;7.12;100.00;99465.66;5069922;28;20237;-74
2021/11/04 09:37:51;;;;;;;6.20;5.60;;;;;;;7.12;100.00;99471.09;5069301;28;20273;-73
2021/11/04 09:40:17;;;;;;;7.60;6.53;;;;;;;7.14;100.00;99462.63;5068958;28;20182;-73
2021/11/04 09:42:49;;;;;;;7.20;6.27;;;;;;;7.09;100.00;99458.13;5069652;28;20277;-74
2021/11/04 09:45:14;;;;;;;7.37;6.53;;;;;;;7.06;100.00;99469.59;5068490;28;20182;-73
2021/11/04 09:47:40;;;;;;;8.33;7.53;;;;;;;7.09;100.00;99465.47;5066562;28;20179;-74
2021/11/04 09:50:13;;;;;;;7.50;6.37;;;;;;;7.12;100.00;99467.56;5070733;28;20252;-74
2021/11/04 09:52:40;;;;;;;9.60;7.00;;;;;;;7.11;100.00;99474.13;5070527;28;20223;-74
2021/11/04 09:55:09;;;;;;;8.37;7.50;;;;;;;7.11;100.00;99480.34;5069939;28;20283;-74
2021/11/04 09:57:38;;;;;;;9.33;7.87;;;;;;;7.11;100.00;99469.47;5068941;28;20542;-74
2021/11/04 10:00:04;;;;;;;8.10;6.93;;;;;;;7.14;100.00;99468.06;5070346;28;20261;-74
2021/11/04 10:02:29;;;;;;;8.10;7.37;;;;;;;7.13;100.00;99477.31;5070385;28;20649;-74
2021/11/04 10:05:08;;;;;;;7.90;7.07;;;;;;;7.14;100.00;99479.72;5070236;28;20179;-74
2021/11/04 10:07:50;;;;;;;7.70;6.63;;;;;;;7.12;100.00;99484.66;5070314;28;20699;-74
2021/11/04 10:10:17;;;;;;;6.83;6.13;;;;;;;7.09;100.00;99479.84;5070382;28;20542;-75
2021/11/04 10:13:06;;;;;;;9.50;8.60;;;;;;;7.06;100.00;99490.53;5070288;28;20183;-74
2021/11/04 10:15:34;;;;;;;10.80;8.60;;;;;;;7.10;100.00;99488.81;5068529;28;20211;-76
2021/11/04 10:18:22;;;;;;;8.90;8.03;;;;;;;7.15;100.00;99488.66;5070251;28;20174;-74
2021/11/04 10:20:58;;;;;;;5.40;4.90;;;;;;;7.15;100.00;99492.19;5070562;28;20167;-77
2021/11/04 10:23:34;;;;;;;6.00;5.43;;;;;;;7.12;100.00;99481.16;5071821;28;20228;-77
2021/11/04 10:26:13;;;;;;;6.60;6.00;;;;;;;7.13;100.00;99490.91;5069914;28;20178;-77
2021/11/04 10:28:42;;;;;;;5.57;4.83;;;;;;;7.06;100.00;99488.59;5069736;28;20566;-77
2021/11/04 10:31:14;;;;;;;5.90;5.27;;;;;;;7.06;100.00;99483.16;5069679;28;20206;-76
2021/11/04 10:33:44;;;;;;;6.90;5.97;;;;;;;7.08;100.00;99480.94;5069738;28;20210;-75
2021/11/04 10:36:17;;;;;;;6.37;5.77;;;;;;;7.07;100.00;99479.34;5073334;28;20174;-78
2021/11/04 10:38:44;;;;;;;7.30;6.60;;;;;;;7.05;100.00;99487.00;5073421;28;20190;-77
2021/11/04 10:41:39;;;;;;;6.13;5.53;;;;;;;7.04;100.00;99479.19;5072984;28;20167;-75
2021/11/04 10:44:06;;;;;;;5.80;5.30;;;;;;;7.06;100.00;99475.03;5072427;28;20209;-78
2021/11/04 10:46:45;;;;;;;4.30;3.90;;;;;;;7.04;100.00;99484.59;5073139;28;20634;-77
2021/11/04 10:49:11;;;;;;;2.60;2.40;;;;;;;7.05;100.00;99478.06;5071766;28;20342;-77
2021/11/04 10:51:38;;;;;;;6.10;5.30;;;;;;;7.02;100.00;99476.78;5071620;28;20174;-77
2021/11/04 10:54:05;;;;;;;7.27;5.37;;;;;;;7.03;100.00;99483.00;5072736;28;20276;-77
2021/11/04 10:56:32;;;;;;;6.37;5.57;;;;;;;7.05;100.00;99487.00;5072894;28;20177;-76
2021/11/04 10:59:10;;;;;;;5.70;4.90;;;;;;;7.03;100.00;99489.22;5072889;28;20178;-77
2021/11/04 11:01:46;;;;;;;2.97;2.77;;;;;;;7.02;100.00;99493.06;5072727;28;20637;-77
2021/11/04 11:04:15;;;;;;;8.10;6.20;;;;;;;7.02;100.00;99487.63;5072972;28;20170;-77
2021/11/04 11:06:51;;;;;;;6.37;5.77;;;;;;;7.05;100.00;99491.63;5072691;28;20186;-78
2021/11/04 11:09:22;;;;;;;3.43;3.13;;;;;;;7.05;100.00;99486.22;5072777;28;20174;-77
2021/11/04 11:11:57;;;;;;;6.47;5.87;;;;;;;7.04;100.00;99490.84;5072558;28;20641;-77
2021/11/04 11:14:34;;;;;;;6.13;5.50;;;;;;;7.05;100.00;99483.50;5072266;28;20213;-77
2021/11/04 11:17:01;;;;;;;3.83;3.43;;;;;;;7.05;100.00;99486.22;5072727;28;20705;-77
2021/11/04 11:19:29;;;;;;;6.10;5.53;;;;;;;7.02;100.00;99490.34;5072476;28;20460;-77
2021/11/04 11:21:55;;;;;;;2.10;2.00;;;;;;;7.03;100.00;99493.88;5072411;28;20643;-77
2021/11/04 11:24:41;;;;;;;5.00;4.13;;;;;;;7.00;100.00;99495.28;5072675;28;20189;-77
2021/11/04 11:27:18;;;;;;;3.93;3.63;;;;;;;7.03;100.00;99489.22;5072589;28;20464;-77
2021/11/04 11:29:47;;;;;;;6.47;5.73;;;;;;;7.02;100.00;99489.53;5072489;28;20232;-77